Time;durP1;ratioP1;P1;durP2;ratioP2;P2;SDS_P1;SDS_P2;PMS_P1;PMS_P2;Temp;Humidity;BMP_temperature;BMP_pressure;BME280_temperature;BME280_humidity;BME280_pressure;Samples;Min_cycle;Max_cycle;Signal;HPM_P1;HPM_P2
2022/12/16 00:01:10;;;;;;;44.22;36.80;;;-4.40;99.90;;;;;;4971061;28;20553;-76
2022/12/16 00:03:37;;;;;;;41.30;36.95;;;-4.40;99.90;;;;;;4969762;29;20031;-76
2022/12/16 00:06:03;;;;;;;45.97;39.45;;;-4.30;99.90;;;;;;4970818;28;20074;-76
2022/12/16 00:08:35;;;;;;;43.38;38.85;;;-4.30;99.90;;;;;;4969611;29;20039;-76
2022/12/16 00:11:02;;;;;;;45.90;41.03;;;-4.20;99.90;;;;;;4970602;28;20045;-76
2022/12/16 00:13:29;;;;;;;42.08;37.28;;;-4.10;99.90;;;;;;4970550;28;20030;-76
2022/12/16 00:15:55;;;;;;;49.90;39.47;;;-4.00;99.90;;;;;;4953381;29;20034;-76
2022/12/16 00:18:21;;;;;;;47.00;38.83;;;-3.90;99.90;;;;;;4969454;29;20479;-76
2022/12/16 00:20:51;;;;;;;41.15;34.90;;;-3.90;99.90;;;;;;4970754;28;20047;-76
2022/12/16 00:23:17;;;;;;;47.78;38.78;;;-3.90;99.90;;;;;;4969342;29;20104;-76
2022/12/16 00:25:44;;;;;;;41.05;36.08;;;-3.90;99.90;;;;;;4969778;29;20035;-76
2022/12/16 00:28:11;;;;;;;42.67;38.13;;;-3.90;99.90;;;;;;4969116;29;20078;-76
2022/12/16 00:30:37;;;;;;;43.78;37.17;;;-3.80;99.90;;;;;;4968901;29;20043;-76
2022/12/16 00:33:04;;;;;;;49.58;36.92;;;-3.80;99.90;;;;;;4969088;29;20039;-76
2022/12/16 00:35:30;;;;;;;45.88;39.80;;;-3.70;99.90;;;;;;4969020;29;20065;-76
2022/12/16 00:37:56;;;;;;;43.17;38.50;;;-3.70;99.90;;;;;;4970292;29;20055;-76
2022/12/16 00:40:22;;;;;;;44.33;37.58;;;-3.60;99.90;;;;;;4965681;29;20020;-76
2022/12/16 00:42:48;;;;;;;43.47;38.97;;;-3.50;99.90;;;;;;4951086;29;20035;-76
2022/12/16 00:45:14;;;;;;;46.47;39.08;;;-3.50;99.90;;;;;;4950585;29;20028;-76
2022/12/16 00:47:40;;;;;;;44.55;38.78;;;-3.40;99.90;;;;;;4949741;29;20067;-76
2022/12/16 00:50:06;;;;;;;47.33;39.92;;;-3.40;99.90;;;;;;4950979;29;20110;-76
2022/12/16 00:52:32;;;;;;;43.90;39.03;;;-3.40;99.90;;;;;;4950899;29;20031;-76
2022/12/16 00:54:58;;;;;;;43.38;35.90;;;-3.30;99.90;;;;;;4956143;29;20030;-76
2022/12/16 00:57:24;;;;;;;40.97;36.38;;;-3.30;99.90;;;;;;4968509;29;20086;-76
2022/12/16 00:59:50;;;;;;;43.00;37.15;;;-3.20;99.90;;;;;;4968563;29;20042;-76
2022/12/16 01:02:16;;;;;;;54.92;40.40;;;-3.20;99.90;;;;;;4952808;29;20042;-76
2022/12/16 01:04:42;;;;;;;43.13;38.20;;;-3.20;99.90;;;;;;4968279;29;20055;-76
2022/12/16 01:07:08;;;;;;;44.83;39.72;;;-3.10;99.90;;;;;;4968523;29;20066;-76
2022/12/16 01:09:34;;;;;;;48.00;35.28;;;-3.00;99.90;;;;;;4969558;28;20111;-76
2022/12/16 01:12:00;;;;;;;47.42;36.70;;;-2.90;99.90;;;;;;4984445;28;20059;-76
2022/12/16 01:14:26;;;;;;;42.63;37.22;;;-2.80;99.90;;;;;;4969629;28;20038;-76
2022/12/16 01:16:52;;;;;;;44.42;36.25;;;-2.80;99.90;;;;;;4984718;28;20042;-76
2022/12/16 01:19:18;;;;;;;44.45;37.15;;;-2.80;99.90;;;;;;4969493;29;20042;-76
2022/12/16 01:21:43;;;;;;;47.88;37.65;;;-2.80;99.90;;;;;;4968315;29;20102;-76
2022/12/16 01:24:10;;;;;;;51.55;42.90;;;-2.80;99.90;;;;;;4969229;29;20083;-76
2022/12/16 01:26:36;;;;;;;44.95;40.05;;;-2.70;99.90;;;;;;4968176;29;20031;-76
2022/12/16 01:29:02;;;;;;;41.65;37.25;;;-2.70;99.90;;;;;;4968176;29;20058;-76
2022/12/16 01:31:28;;;;;;;41.10;35.55;;;-2.70;99.90;;;;;;4968068;29;20031;-76
2022/12/16 01:33:53;;;;;;;43.05;36.22;;;-2.60;99.90;;;;;;4969351;28;20027;-76
2022/12/16 01:36:19;;;;;;;40.60;34.58;;;-2.50;99.90;;;;;;4951885;29;20483;-76
2022/12/16 01:38:45;;;;;;;38.53;33.00;;;-2.50;99.90;;;;;;4968967;28;20051;-76
2022/12/16 01:41:13;;;;;;;40.05;35.92;;;-2.50;99.90;;;;;;4983700;28;20027;-76
2022/12/16 01:43:40;;;;;;;39.95;35.45;;;-2.30;99.90;;;;;;4967973;29;20027;-76
2022/12/16 01:46:12;;;;;;;41.35;35.10;;;-2.30;99.90;;;;;;4967966;29;20031;-75
2022/12/16 01:48:45;;;;;;;39.63;35.47;;;-2.30;99.90;;;;;;4968925;29;20031;-76
2022/12/16 01:51:37;;;;;;;37.97;33.53;;;-2.30;99.90;;;;;;4969000;28;20122;-76
2022/12/16 01:54:33;;;;;;;44.53;35.70;;;-2.40;99.90;;;;;;4967893;29;20031;-76
2022/12/16 01:57:07;;;;;;;38.00;33.92;;;-2.40;99.90;;;;;;4947065;29;20044;-75
2022/12/16 01:59:36;;;;;;;40.65;33.97;;;-2.40;99.90;;;;;;4948308;29;20082;-76
2022/12/16 02:02:03;;;;;;;39.92;34.55;;;-2.30;99.90;;;;;;4949644;29;20136;-76
2022/12/16 02:04:28;;;;;;;44.33;36.72;;;-2.30;99.90;;;;;;4948345;29;20044;-76
2022/12/16 02:06:55;;;;;;;37.47;33.80;;;-2.20;99.90;;;;;;4948147;29;20050;-76
2022/12/16 02:09:21;;;;;;;38.38;33.78;;;-2.20;99.90;;;;;;4949995;29;20040;-76
2022/12/16 02:12:08;;;;;;;41.95;36.58;;;-2.20;99.90;;;;;;4968708;28;20067;-76
2022/12/16 02:14:51;;;;;;;39.55;34.85;;;-2.10;99.90;;;;;;4967442;29;20027;-76
2022/12/16 02:17:32;;;;;;;41.78;34.97;;;-2.10;99.90;;;;;;4967383;29;20023;-76
2022/12/16 02:20:38;;;;;;;37.75;33.78;;;-2.10;99.90;;;;;;4968558;29;20042;-76
2022/12/16 02:23:27;;;;;;;41.70;33.97;;;-2.10;99.90;;;;;;4957094;28;20039;-76
2022/12/16 02:26:32;;;;;;;39.83;35.55;;;-2.10;99.90;;;;;;4963745;29;20038;-76
2022/12/16 02:29:09;;;;;;;40.20;35.58;;;-2.00;99.90;;;;;;4874935;29;20112;-76
2022/12/16 02:32:06;;;;;;;37.92;33.97;;;-2.00;99.90;;;;;;4890273;29;20049;-76
2022/12/16 02:34:48;;;;;;;49.17;41.97;;;-2.10;99.90;;;;;;4942268;29;20090;-76
2022/12/16 02:37:32;;;;;;;43.58;39.10;;;-2.10;99.90;;;;;;4968239;28;20047;-76
2022/12/16 02:40:07;;;;;;;37.78;33.05;;;-2.10;99.90;;;;;;4966716;29;20034;-76
2022/12/16 02:42:59;;;;;;;50.92;39.35;;;-2.00;99.90;;;;;;4968094;28;20426;-76
2022/12/16 02:45:29;;;;;;;44.53;36.50;;;-2.10;99.90;;;;;;4967900;28;20046;-76
2022/12/16 02:47:55;;;;;;;42.30;34.85;;;-2.10;99.90;;;;;;4968203;28;20035;-76
2022/12/16 02:50:43;;;;;;;43.58;37.72;;;-2.20;99.90;;;;;;4950906;29;20039;-76
2022/12/16 02:53:09;;;;;;;42.15;35.08;;;-2.20;99.90;;;;;;4968171;29;20031;-76
2022/12/16 02:55:43;;;;;;;44.13;34.35;;;-2.20;99.90;;;;;;4967600;29;20047;-76
2022/12/16 02:58:20;;;;;;;46.85;35.80;;;-2.20;99.90;;;;;;4967716;29;20047;-75
2022/12/16 03:01:07;;;;;;;38.42;34.25;;;-2.40;99.90;;;;;;4967853;28;20036;-76
2022/12/16 03:03:44;;;;;;;47.53;35.20;;;-2.30;99.90;;;;;;4966602;29;20031;-76
2022/12/16 03:06:13;;;;;;;46.35;37.15;;;-2.30;99.90;;;;;;4967636;28;20047;-76
2022/12/16 03:08:40;;;;;;;34.22;30.55;;;-2.30;99.90;;;;;;4967694;28;20055;-76
2022/12/16 03:11:07;;;;;;;37.47;33.63;;;-2.30;99.90;;;;;;4963061;29;20119;-76
2022/12/16 03:13:45;;;;;;;43.55;33.85;;;-2.20;99.90;;;;;;4947013;29;20042;-76
2022/12/16 03:16:14;;;;;;;42.75;35.83;;;-2.20;99.90;;;;;;4982035;28;20040;-76
2022/12/16 03:18:44;;;;;;;47.88;35.97;;;-2.20;99.90;;;;;;4967753;28;20035;-76
2022/12/16 03:21:11;;;;;;;40.10;35.60;;;-2.20;99.90;;;;;;4966475;29;20031;-76
2022/12/16 03:23:46;;;;;;;46.28;35.92;;;-2.20;99.90;;;;;;4967457;29;20450;-76
2022/12/16 03:26:27;;;;;;;38.83;34.25;;;-2.10;99.90;;;;;;4966220;29;20035;-76
2022/12/16 03:29:00;;;;;;;42.28;33.58;;;-2.10;99.90;;;;;;4966432;29;20063;-76
2022/12/16 03:31:34;;;;;;;37.42;33.30;;;-2.10;99.90;;;;;;4966508;29;20086;-76
2022/12/16 03:34:29;;;;;;;40.97;36.70;;;-2.10;99.90;;;;;;4966070;29;20042;-76
2022/12/16 03:37:03;;;;;;;46.90;35.00;;;-2.10;99.90;;;;;;4967504;28;20031;-76
2022/12/16 03:39:34;;;;;;;49.38;35.63;;;-2.10;99.90;;;;;;4966216;29;20023;-76
2022/12/16 03:42:02;;;;;;;38.05;33.83;;;-2.10;99.90;;;;;;4967169;28;20031;-76
2022/12/16 03:44:28;;;;;;;41.65;37.47;;;-2.00;99.90;;;;;;4967569;28;20490;-76
2022/12/16 03:46:54;;;;;;;41.55;34.28;;;-2.00;99.90;;;;;;4967354;28;20028;-75
2022/12/16 03:49:22;;;;;;;39.38;32.50;;;-2.00;99.90;;;;;;4967359;29;20027;-76
2022/12/16 03:51:47;;;;;;;47.17;36.78;;;-2.00;99.90;;;;;;4967425;28;20027;-76
2022/12/16 03:54:13;;;;;;;40.85;36.65;;;-2.00;99.90;;;;;;4965972;29;20035;-76
2022/12/16 03:56:39;;;;;;;45.40;34.65;;;-2.00;99.90;;;;;;4962610;29;20036;-76
2022/12/16 03:59:04;;;;;;;38.33;34.20;;;-2.00;99.90;;;;;;4948162;29;20035;-76
2022/12/16 04:01:30;;;;;;;43.55;38.58;;;-2.00;99.90;;;;;;4963497;29;20398;-76
2022/12/16 04:03:56;;;;;;;35.85;31.98;;;-2.00;99.90;;;;;;4966904;28;20027;-75
2022/12/16 04:06:22;;;;;;;43.72;35.35;;;-2.00;99.90;;;;;;4966134;29;20031;-76
2022/12/16 04:08:48;;;;;;;39.90;35.15;;;-2.10;99.90;;;;;;4982084;28;20062;-76
2022/12/16 04:25:18;;;;;;;39.42;34.35;;;-2.30;99.90;;;;;;4968899;28;20065;-75
2022/12/16 04:27:45;;;;;;;41.97;37.53;;;-2.20;99.90;;;;;;4985064;28;20023;-74
2022/12/16 04:30:20;;;;;;;36.97;32.25;;;-2.20;99.90;;;;;;4952004;28;20114;-75
